Wayana — PE5639 — position and weather

sailwx.info

Track history (hours):
 
Tides and Currents Weather Stations Pressure Air Temp Water Temp Dewpoint Dewpoint Depression Visibility Wind Speed Wind Dir Waves Ship Positions

Wayana

Last reported at 2016-Aug-27 19:33 UTC. Time now 2016-Aug-28 14:06 UTC.
Position N 53°25' E 006°12'.

Length 14 m.

Type: Sailing vessel. MMSI: 244020670.

Date/timePositionNaut miles runAvg speedWind from/ knotsBaromVisibWave heightAir tempDewpointWater temp
2016-Aug-27 19:33N 53°25' E 006°12'0 0.0
2016-Aug-27 18:30N 53°25' E 006°12'0 0.0
2016-Aug-27 17:30N 53°25' E 006°12'3 3.5
2016-Aug-27 16:33N 53°26' E 006°07'5 5.3
2016-Aug-27 15:33N 53°31' E 006°03'6 5.4
2016-Aug-27 14:31N 53°36' E 006°07'6 5.9
2016-Aug-27 13:32N 53°41' E 006°11'8 6.6
2016-Aug-27 12:14N 53°50' E 006°08'4 6.1
2016-Aug-27 11:32N 53°54' E 006°10'51 6.3
2016-Aug-27 03:26N 54°33' E 007°06'5 5.8
2016-Aug-27 02:33N 54°36' E 007°13'13 5.8
2016-Aug-27 00:18N 54°46' E 007°28'4 4.8
2016-Aug-26 23:32N 54°49' E 007°30'5 5.5
2016-Aug-26 22:33N 54°54' E 007°33'6 6.1
2016-Aug-26 21:33N 54°60' E 007°38'6 6.1
2016-Aug-26 20:33N 55°05' E 007°42'6 5.9
2016-Aug-26 19:33N 55°10' E 007°48'6 6.1
2016-Aug-26 18:32N 55°15' E 007°54'15 4.9
2016-Aug-26 15:26N 55°30' E 007°57'  
2016-Aug-23 04:32N 57°55' E 007°03'6 6.5
2016-Aug-23 03:33N 58°01' E 006°58'1 0.1
2016-Aug-22 15:28N 58°01' E 007°00'0 0.0
2016-Aug-22 14:32N 58°01' E 007°00'5 5.0
2016-Aug-22 13:33N 58°01' E 006°51'7 6.6
2016-Aug-22 12:33N 58°03' E 006°39'7 6.7
2016-Aug-22 11:33N 58°08' E 006°30'6 5.5
2016-Aug-22 10:32N 58°13' E 006°26'6 6.2
2016-Aug-22 09:32N 58°17' E 006°17'12 6.0
2016-Aug-22 07:33N 58°25' E 005°60'2 2.1
2016-Aug-22 06:31N 58°27' E 006°00'  
2016-Aug-19 18:29N 58°27' E 006°00'0 0.0
2016-Aug-19 17:32N 58°27' E 006°00'0 0.0
2016-Aug-19 16:32N 58°27' E 006°00'0 0.0
2016-Aug-19 15:32N 58°27' E 006°00'0 0.0
2016-Aug-19 14:32N 58°27' E 006°00'1 0.5
2016-Aug-19 13:33N 58°27' E 005°59'5 4.7
2016-Aug-19 12:33N 58°28' E 005°50'13 5.3
2016-Aug-19 10:03N 58°38' E 005°33'3 6.8
2016-Aug-19 09:33N 58°41' E 005°30'6 5.9
2016-Aug-19 08:33N 58°47' E 005°27'6 6.0
2016-Aug-19 07:33N 58°52' E 005°31'4 4.1
2016-Aug-19 06:32N 58°56' E 005°35'0 0.0
2016-Aug-18 17:33N 58°56' E 005°35'0 0.2
2016-Aug-18 16:33N 58°56' E 005°35'5 5.3
2016-Aug-18 15:33N 59°01' E 005°30'6 6.2
2016-Aug-18 14:31N 59°06' E 005°26'7 6.6
2016-Aug-18 13:32N 59°13' E 005°21'  
Track history (hours):
 
Tides and Currents Weather Stations Pressure Air Temp Water Temp Dewpoint Dewpoint Depression Visibility Wind Speed Wind Dir Waves Ship Positions

Wayana

Last reported at 2016-Aug-27 19:33 UTC. Time now 2016-Aug-28 14:06 UTC.
Position N 53°25' E 006°12'.

Length 14 m.

Type: Sailing vessel. MMSI: 244020670.

Date/timePositionNaut miles runAvg speedWind from/ knotsBaromVisibWave heightAir tempDewpointWater temp
2016-Aug-27 19:33N 53°25' E 006°12'0 0.0
2016-Aug-27 18:30N 53°25' E 006°12'0 0.0
2016-Aug-27 17:30N 53°25' E 006°12'3 3.5
2016-Aug-27 16:33N 53°26' E 006°07'5 5.3
2016-Aug-27 15:33N 53°31' E 006°03'6 5.4
2016-Aug-27 14:31N 53°36' E 006°07'6 5.9
2016-Aug-27 13:32N 53°41' E 006°11'8 6.6
2016-Aug-27 12:14N 53°50' E 006°08'4 6.1
2016-Aug-27 11:32N 53°54' E 006°10'51 6.3
2016-Aug-27 03:26N 54°33' E 007°06'5 5.8
2016-Aug-27 02:33N 54°36' E 007°13'13 5.8
2016-Aug-27 00:18N 54°46' E 007°28'4 4.8
2016-Aug-26 23:32N 54°49' E 007°30'5 5.5
2016-Aug-26 22:33N 54°54' E 007°33'6 6.1
2016-Aug-26 21:33N 54°60' E 007°38'6 6.1
2016-Aug-26 20:33N 55°05' E 007°42'6 5.9
2016-Aug-26 19:33N 55°10' E 007°48'6 6.1
2016-Aug-26 18:32N 55°15' E 007°54'15 4.9
2016-Aug-26 15:26N 55°30' E 007°57'  
2016-Aug-23 04:32N 57°55' E 007°03'6 6.5
2016-Aug-23 03:33N 58°01' E 006°58'1 0.1
2016-Aug-22 15:28N 58°01' E 007°00'0 0.0
2016-Aug-22 14:32N 58°01' E 007°00'5 5.0
2016-Aug-22 13:33N 58°01' E 006°51'7 6.6
2016-Aug-22 12:33N 58°03' E 006°39'7 6.7
2016-Aug-22 11:33N 58°08' E 006°30'6 5.5
2016-Aug-22 10:32N 58°13' E 006°26'6 6.2
2016-Aug-22 09:32N 58°17' E 006°17'12 6.0
2016-Aug-22 07:33N 58°25' E 005°60'2 2.1
2016-Aug-22 06:31N 58°27' E 006°00'  
2016-Aug-19 18:29N 58°27' E 006°00'0 0.0
2016-Aug-19 17:32N 58°27' E 006°00'0 0.0
2016-Aug-19 16:32N 58°27' E 006°00'0 0.0
2016-Aug-19 15:32N 58°27' E 006°00'0 0.0
2016-Aug-19 14:32N 58°27' E 006°00'1 0.5
2016-Aug-19 13:33N 58°27' E 005°59'5 4.7
2016-Aug-19 12:33N 58°28' E 005°50'13 5.3
2016-Aug-19 10:03N 58°38' E 005°33'3 6.8
2016-Aug-19 09:33N 58°41' E 005°30'6 5.9
2016-Aug-19 08:33N 58°47' E 005°27'6 6.0
2016-Aug-19 07:33N 58°52' E 005°31'4 4.1
2016-Aug-19 06:32N 58°56' E 005°35'0 0.0
2016-Aug-18 17:33N 58°56' E 005°35'0 0.2
2016-Aug-18 16:33N 58°56' E 005°35'5 5.3
2016-Aug-18 15:33N 59°01' E 005°30'6 6.2
2016-Aug-18 14:31N 59°06' E 005°26'7 6.6
2016-Aug-18 13:32N 59°13' E 005°21'  

Dump ship's entire track history